Time;durP1;ratioP1;P1;durP2;ratioP2;P2;SDS_P1;SDS_P2;PMS_P1;PMS_P2;Temp;Humidity;BMP_temperature;BMP_pressure;BME280_temperature;BME280_humidity;BME280_pressure;Samples;Min_cycle;Max_cycle;Signal;HPM_P1;HPM_P2
2022/02/14 00:01:45;;;;;;;5.23;2.10;;;5.90;99.90;;;;;;5008406;28;20566;-78
2022/02/14 00:04:10;;;;;;;4.07;2.00;;;6.00;99.90;;;;;;5002587;28;20186;-77
2022/02/14 00:06:36;;;;;;;3.27;1.90;;;6.10;99.90;;;;;;4997489;28;20657;-77
2022/02/14 00:09:02;;;;;;;4.77;1.73;;;6.20;99.90;;;;;;4998568;28;20274;-78
2022/02/14 00:11:28;;;;;;;4.03;2.07;;;6.40;99.90;;;;;;4997374;28;20192;-78
2022/02/14 00:13:53;;;;;;;3.20;1.80;;;6.50;99.90;;;;;;4997405;28;20281;-77
2022/02/14 00:16:19;;;;;;;3.13;1.80;;;6.50;99.90;;;;;;5001211;28;20216;-76
2022/02/14 00:18:45;;;;;;;5.63;1.97;;;6.60;99.90;;;;;;5001447;28;20215;-76
2022/02/14 00:21:10;;;;;;;3.87;1.87;;;6.80;99.90;;;;;;4999368;28;20195;-77
2022/02/14 00:23:36;;;;;;;2.00;1.60;;;6.80;99.90;;;;;;4996751;28;20235;-78
2022/02/14 00:26:02;;;;;;;3.53;1.80;;;6.80;99.90;;;;;;4997733;28;20662;-77
2022/02/14 00:28:28;;;;;;;3.33;1.70;;;6.60;99.90;;;;;;4996833;28;20202;-77
2022/02/14 00:30:55;;;;;;;3.63;1.97;;;6.50;99.90;;;;;;4998471;28;20183;-77
2022/02/14 00:33:20;;;;;;;3.07;1.70;;;6.40;99.90;;;;;;5013325;28;20184;-77
2022/02/14 00:35:47;;;;;;;2.57;1.53;;;6.60;99.90;;;;;;4996975;28;20176;-77
2022/02/14 00:38:13;;;;;;;4.77;1.83;;;6.60;99.90;;;;;;4997315;28;20262;-76
2022/02/14 00:40:39;;;;;;;3.57;2.30;;;6.40;99.90;;;;;;4996507;28;20204;-79
2022/02/14 00:43:04;;;;;;;3.73;2.07;;;6.50;99.90;;;;;;4997956;28;21072;-77
2022/02/14 00:45:30;;;;;;;2.80;2.00;;;6.60;99.90;;;;;;4997643;28;20621;-77
2022/02/14 00:47:56;;;;;;;4.07;1.80;;;6.60;99.90;;;;;;4997123;28;20215;-78
2022/02/14 00:50:22;;;;;;;2.53;1.47;;;6.50;99.90;;;;;;4996989;28;20188;-78
2022/02/14 00:52:47;;;;;;;3.97;1.80;;;6.50;99.90;;;;;;4996702;28;20565;-79
2022/02/14 00:55:15;;;;;;;1.97;1.60;;;6.60;99.90;;;;;;4998512;28;20709;-78
2022/02/14 00:57:41;;;;;;;3.10;2.10;;;6.80;99.90;;;;;;4998234;28;20266;-77
2022/02/14 01:00:10;;;;;;;4.27;1.67;;;6.90;99.90;;;;;;4999774;28;20303;-81
2022/02/14 01:02:36;;;;;;;2.77;1.63;;;7.00;99.90;;;;;;4998771;28;20203;-77
2022/02/14 01:05:02;;;;;;;2.40;1.67;;;7.10;99.90;;;;;;5001286;28;20238;-79
2022/02/14 01:07:28;;;;;;;2.27;1.50;;;7.20;99.90;;;;;;5012624;28;20184;-80
2022/02/14 01:09:54;;;;;;;2.33;1.67;;;7.20;99.90;;;;;;4998974;28;20184;-78
2022/02/14 01:12:20;;;;;;;3.93;1.90;;;7.10;99.90;;;;;;4999292;28;20192;-77
2022/02/14 01:14:46;;;;;;;2.20;1.67;;;7.20;99.90;;;;;;4993050;28;20196;-80
2022/02/14 01:17:12;;;;;;;3.73;1.90;;;7.20;99.90;;;;;;4999887;28;20203;-79
2022/02/14 01:19:38;;;;;;;2.63;1.60;;;7.20;99.90;;;;;;4999688;28;20211;-78
2022/02/14 01:22:04;;;;;;;3.73;1.77;;;7.10;99.90;;;;;;5001005;28;20180;-77
2022/02/14 01:24:29;;;;;;;3.73;1.87;;;7.00;99.90;;;;;;5003083;28;20192;-77
2022/02/14 01:26:56;;;;;;;2.00;1.60;;;6.80;99.90;;;;;;4998731;28;20254;-80
2022/02/14 01:29:22;;;;;;;3.83;1.50;;;6.70;99.90;;;;;;4997609;28;20209;-78
2022/02/14 01:31:48;;;;;;;2.40;1.80;;;6.60;99.90;;;;;;4998807;28;20188;-77
2022/02/14 01:34:14;;;;;;;1.87;1.70;;;6.50;99.90;;;;;;5000965;28;20184;-80
2022/02/14 01:36:39;;;;;;;2.97;2.00;;;6.40;99.90;;;;;;4997501;28;20220;-77
2022/02/14 01:39:05;;;;;;;3.53;1.90;;;6.30;99.90;;;;;;5002126;28;20219;-80
2022/02/14 01:41:30;;;;;;;3.60;1.70;;;6.30;99.90;;;;;;5001095;28;20314;-79
2022/02/14 01:43:57;;;;;;;2.80;1.80;;;6.40;99.90;;;;;;5003560;28;20219;-79
2022/02/14 01:46:23;;;;;;;3.60;1.60;;;6.50;99.90;;;;;;4999599;28;20187;-75
2022/02/14 01:48:48;;;;;;;2.40;1.83;;;6.30;99.90;;;;;;5001307;28;20246;-80
2022/02/14 01:51:16;;;;;;;2.23;1.60;;;6.20;99.90;;;;;;5000071;28;20274;-78
2022/02/14 01:53:42;;;;;;;2.73;1.80;;;6.20;99.90;;;;;;4996721;28;20572;-81
2022/02/14 01:56:11;;;;;;;3.17;1.60;;;6.00;99.90;;;;;;5000646;28;20189;-77
2022/02/14 01:58:36;;;;;;;1.93;1.67;;;6.10;99.90;;;;;;4997634;28;20203;-77
2022/02/14 02:01:02;;;;;;;2.40;1.87;;;6.10;99.90;;;;;;5001175;28;20187;-79
2022/02/14 02:03:28;;;;;;;3.63;2.10;;;6.20;99.90;;;;;;4998722;28;20287;-78
2022/02/14 02:05:55;;;;;;;4.60;2.20;;;6.10;99.90;;;;;;4996505;28;20267;-76
2022/02/14 02:08:21;;;;;;;2.70;2.17;;;5.80;99.90;;;;;;4996786;28;20213;-78
2022/02/14 02:10:47;;;;;;;3.47;2.40;;;5.40;99.90;;;;;;4996757;28;20180;-79
2022/02/14 02:13:16;;;;;;;4.40;2.93;;;5.10;99.90;;;;;;4998189;28;20199;-79
2022/02/14 02:15:42;;;;;;;5.67;2.87;;;4.80;99.90;;;;;;4998699;28;20196;-76
2022/02/14 02:18:07;;;;;;;3.47;2.30;;;4.70;99.90;;;;;;4997306;28;20224;-77
2022/02/14 02:20:34;;;;;;;3.43;2.50;;;4.60;99.90;;;;;;4997558;28;20208;-76
2022/02/14 02:23:00;;;;;;;4.90;2.73;;;4.50;99.90;;;;;;5002998;28;20884;-77
2022/02/14 02:25:25;;;;;;;3.77;2.47;;;4.50;99.90;;;;;;4994609;28;20195;-75
2022/02/14 02:27:51;;;;;;;3.50;2.83;;;4.60;99.90;;;;;;4998724;28;20285;-78
2022/02/14 02:30:18;;;;;;;3.63;2.90;;;4.70;99.90;;;;;;5000572;28;20191;-77
2022/02/14 02:32:45;;;;;;;3.90;2.43;;;4.80;99.90;;;;;;4996256;28;20271;-79
2022/02/14 02:35:11;;;;;;;3.60;2.67;;;4.90;99.90;;;;;;4997958;28;20204;-80
2022/02/14 02:37:37;;;;;;;4.50;2.73;;;4.80;99.90;;;;;;5002166;28;20183;-77
2022/02/14 02:40:06;;;;;;;5.77;2.40;;;4.70;99.90;;;;;;5002397;28;20221;-80
2022/02/14 02:42:31;;;;;;;4.43;3.03;;;4.60;99.90;;;;;;5002394;28;20191;-77
2022/02/14 02:44:57;;;;;;;2.90;2.57;;;4.60;99.90;;;;;;5005587;28;20219;-76
2022/02/14 02:47:24;;;;;;;4.07;2.63;;;4.60;99.90;;;;;;5001519;28;20181;-79
2022/02/14 02:49:50;;;;;;;4.93;2.83;;;4.60;99.90;;;;;;5017219;28;20208;-79
2022/02/14 02:52:18;;;;;;;2.77;2.47;;;4.50;99.90;;;;;;5003003;28;20184;-79
2022/02/14 02:54:44;;;;;;;3.47;2.40;;;4.50;99.90;;;;;;5014590;28;20184;-78
2022/02/14 02:57:11;;;;;;;2.97;2.40;;;4.50;99.90;;;;;;5019382;28;20650;-80
2022/02/14 02:59:37;;;;;;;3.73;2.17;;;4.50;99.90;;;;;;5007146;28;20211;-80
2022/02/14 03:02:07;;;;;;;4.90;3.10;;;4.50;99.90;;;;;;4998240;28;20252;-80
2022/02/14 03:04:33;;;;;;;4.87;2.47;;;4.50;99.90;;;;;;5001411;28;20649;-78
2022/02/14 03:07:00;;;;;;;3.10;2.47;;;4.40;99.90;;;;;;5004504;28;20720;-76
2022/02/14 03:09:26;;;;;;;5.17;2.33;;;4.40;99.90;;;;;;4999095;28;20682;-79
2022/02/14 03:11:53;;;;;;;4.70;2.43;;;4.40;99.90;;;;;;5000796;28;20238;-79
2022/02/14 03:14:18;;;;;;;4.17;2.50;;;4.40;99.90;;;;;;5015909;28;20199;-76
2022/02/14 03:16:44;;;;;;;4.97;2.47;;;4.30;99.90;;;;;;5001253;28;20184;-78
2022/02/14 03:19:10;;;;;;;3.20;2.27;;;4.20;99.90;;;;;;4997810;28;20207;-79
2022/02/14 03:21:37;;;;;;;3.43;2.30;;;4.20;99.90;;;;;;5001163;28;20172;-78
2022/02/14 03:24:03;;;;;;;6.10;2.90;;;4.00;99.90;;;;;;5000042;28;20218;-78
2022/02/14 03:26:29;;;;;;;3.23;2.70;;;3.90;99.90;;;;;;5001235;28;20188;-78
2022/02/14 03:28:56;;;;;;;4.57;3.10;;;3.80;99.90;;;;;;5002223;28;20545;-75
2022/02/14 03:31:22;;;;;;;7.73;2.97;;;3.80;99.90;;;;;;5002207;28;20202;-75
2022/02/14 03:33:49;;;;;;;3.97;3.00;;;3.70;99.90;;;;;;5003291;28;20714;-77
2022/02/14 03:36:16;;;;;;;4.43;2.67;;;3.70;99.90;;;;;;5001741;28;20266;-78
2022/02/14 03:38:43;;;;;;;3.73;2.67;;;3.70;99.90;;;;;;5003941;28;20297;-79
2022/02/14 03:41:09;;;;;;;5.93;3.47;;;3.60;99.90;;;;;;5016948;28;20267;-78
2022/02/14 03:43:35;;;;;;;3.67;2.80;;;3.70;99.90;;;;;;4997591;28;20176;-78
2022/02/14 03:46:01;;;;;;;4.63;2.70;;;3.70;99.90;;;;;;5016379;28;20186;-77
2022/02/14 03:48:27;;;;;;;5.37;3.00;;;3.70;99.90;;;;;;4997521;28;20235;-78
2022/02/14 03:50:53;;;;;;;4.33;2.57;;;3.80;99.90;;;;;;4998608;28;20271;-79
2022/02/14 03:53:19;;;;;;;3.80;2.73;;;3.80;99.90;;;;;;4995997;28;20243;-80
2022/02/14 03:55:45;;;;;;;4.50;2.70;;;3.90;99.90;;;;;;4995519;28;20188;-75
2022/02/14 03:58:11;;;;;;;5.47;2.93;;;4.00;99.90;;;;;;4999836;28;20218;-78
2022/02/14 04:00:36;;;;;;;3.80;2.43;;;4.00;99.90;;;;;;5000741;28;20952;-77
2022/02/14 04:03:02;;;;;;;4.10;2.53;;;4.00;99.90;;;;;;5003946;28;20204;-77
2022/02/14 04:05:28;;;;;;;4.27;2.73;;;4.00;99.90;;;;;;4996659;28;20248;-78
2022/02/14 04:07:57;;;;;;;4.23;2.60;;;4.00;99.90;;;;;;4994137;28;20681;-77
2022/02/14 04:10:23;;;;;;;3.43;2.27;;;4.10;99.90;;;;;;4999600;28;20183;-81
2022/02/14 04:12:49;;;;;;;4.37;2.83;;;4.20;99.90;;;;;;5001510;28;20646;-78
2022/02/14 04:15:14;;;;;;;3.00;2.70;;;4.20;99.90;;;;;;4997254;28;20181;-78
2022/02/14 04:17:41;;;;;;;4.03;2.63;;;4.30;99.90;;;;;;5000744;28;20184;-78
2022/02/14 04:20:08;;;;;;;3.23;2.57;;;4.30;99.90;;;;;;5014352;28;20589;-78
2022/02/14 04:22:35;;;;;;;4.00;2.70;;;4.40;99.90;;;;;;4992448;28;20188;-80
2022/02/14 04:25:01;;;;;;;3.13;2.50;;;4.40;99.90;;;;;;4996449;28;20176;-79
2022/02/14 04:27:26;;;;;;;4.13;2.40;;;4.40;99.90;;;;;;4996692;28;20183;-78
2022/02/14 04:29:52;;;;;;;4.43;2.93;;;4.30;99.90;;;;;;4999343;28;20202;-78
2022/02/14 04:32:18;;;;;;;4.47;2.60;;;4.30;99.90;;;;;;4994905;28;20226;-77
2022/02/14 04:34:43;;;;;;;3.07;2.67;;;4.30;99.90;;;;;;4995018;28;20838;-79
2022/02/14 04:37:09;;;;;;;5.43;2.67;;;4.20;99.90;;;;;;4997277;28;20184;-78
2022/02/14 04:39:34;;;;;;;6.70;3.50;;;4.20;99.90;;;;;;4995140;28;20274;-80
2022/02/14 04:42:00;;;;;;;4.37;2.30;;;4.10;99.90;;;;;;4997564;28;20192;-78
2022/02/14 04:44:26;;;;;;;4.77;2.90;;;4.00;99.90;;;;;;5012792;28;20191;-80
2022/02/14 04:46:51;;;;;;;3.90;2.70;;;3.80;99.90;;;;;;4994050;28;20184;-77
2022/02/14 04:49:17;;;;;;;3.03;2.50;;;3.80;99.90;;;;;;5003991;28;20211;-79
2022/02/14 04:51:43;;;;;;;2.90;2.23;;;3.70;99.90;;;;;;5012924;28;20180;-79
2022/02/14 04:54:09;;;;;;;2.80;2.40;;;3.70;99.90;;;;;;5000067;28;20184;-77
2022/02/14 04:56:35;;;;;;;5.83;2.40;;;3.70;99.90;;;;;;5012870;28;20187;-79
2022/02/14 04:59:00;;;;;;;4.57;2.93;;;3.80;99.90;;;;;;4998586;28;20208;-77
2022/02/14 05:01:26;;;;;;;3.60;2.57;;;3.80;99.90;;;;;;5015461;28;20211;-79
2022/02/14 05:03:52;;;;;;;3.30;2.70;;;3.70;99.90;;;;;;4996978;28;20184;-79
2022/02/14 05:06:18;;;;;;;3.97;2.73;;;3.80;99.90;;;;;;4996727;28;20180;-79
2022/02/14 05:08:43;;;;;;;4.23;2.47;;;3.90;99.90;;;;;;5013545;28;20678;-76
2022/02/14 05:11:10;;;;;;;3.10;2.57;;;3.90;99.90;;;;;;4998256;28;20215;-79
2022/02/14 05:13:40;;;;;;;3.10;2.80;;;4.00;99.90;;;;;;4998820;28;20562;-77
2022/02/14 05:16:06;;;;;;;6.10;2.60;;;4.00;99.90;;;;;;4999315;28;20180;-79
2022/02/14 05:18:32;;;;;;;4.00;2.80;;;4.00;99.90;;;;;;4999514;28;20690;-78
2022/02/14 05:20:57;;;;;;;3.73;2.30;;;4.00;99.90;;;;;;4998969;28;20208;-77
2022/02/14 05:23:23;;;;;;;5.13;2.30;;;4.00;99.90;;;;;;4997942;28;20544;-76
2022/02/14 05:25:49;;;;;;;3.50;2.80;;;4.10;99.90;;;;;;4996368;28;20179;-79
2022/02/14 05:28:14;;;;;;;4.00;2.53;;;4.10;99.90;;;;;;4997766;28;20215;-79
2022/02/14 05:30:40;;;;;;;5.03;2.30;;;4.10;99.90;;;;;;5000972;28;20187;-79
2022/02/14 05:33:06;;;;;;;3.70;2.57;;;4.20;99.90;;;;;;5000329;28;20196;-78
2022/02/14 05:35:32;;;;;;;5.10;2.47;;;4.20;99.90;;;;;;5000578;28;20673;-78
2022/02/14 05:37:57;;;;;;;4.07;2.50;;;4.20;99.90;;;;;;5017023;28;20211;-79
2022/02/14 05:40:23;;;;;;;3.37;2.50;;;4.20;99.90;;;;;;4999949;28;20215;-80
2022/02/14 05:42:49;;;;;;;4.87;2.57;;;4.20;99.90;;;;;;4998074;28;20178;-80
2022/02/14 05:45:15;;;;;;;3.33;2.20;;;4.20;99.90;;;;;;5000938;28;20741;-79
2022/02/14 05:47:41;;;;;;;4.47;2.67;;;4.10;99.90;;;;;;4998182;28;20207;-80
2022/02/14 05:50:08;;;;;;;3.67;2.43;;;4.20;99.90;;;;;;5004476;28;20704;-78
2022/02/14 05:52:34;;;;;;;4.00;2.30;;;4.20;99.90;;;;;;4999080;28;20192;-80
2022/02/14 05:55:00;;;;;;;3.63;2.53;;;4.20;99.90;;;;;;4998702;28;20227;-79
2022/02/14 05:57:25;;;;;;;2.30;2.10;;;4.20;99.90;;;;;;4998066;28;20203;-80
2022/02/14 05:59:51;;;;;;;3.17;2.87;;;4.20;99.90;;;;;;5001258;28;20215;-79
2022/02/14 06:02:16;;;;;;;7.27;2.50;;;4.10;99.90;;;;;;4997397;28;20208;-78
2022/02/14 06:04:42;;;;;;;4.37;2.87;;;4.00;99.90;;;;;;4997157;28;20208;-77
2022/02/14 06:07:07;;;;;;;3.53;2.67;;;3.90;99.90;;;;;;4998708;28;20243;-79
2022/02/14 06:09:33;;;;;;;4.27;2.83;;;3.90;99.90;;;;;;4999109;28;20227;-79
2022/02/14 06:11:59;;;;;;;4.23;2.47;;;3.80;99.90;;;;;;5002675;28;20188;-77
2022/02/14 06:14:26;;;;;;;4.20;2.27;;;3.70;99.90;;;;;;5003400;28;20199;-79
2022/02/14 06:16:52;;;;;;;6.10;2.87;;;3.60;99.90;;;;;;5004962;28;20188;-80
2022/02/14 06:19:18;;;;;;;3.67;2.40;;;3.60;99.90;;;;;;5002775;28;20204;-78
2022/02/14 06:21:43;;;;;;;4.13;2.40;;;3.50;99.90;;;;;;5014916;28;20263;-79
2022/02/14 06:24:09;;;;;;;2.70;2.10;;;3.50;99.90;;;;;;5003357;28;21156;-78
2022/02/14 06:26:35;;;;;;;2.93;2.10;;;3.40;99.90;;;;;;5000617;28;20184;-78
2022/02/14 06:29:02;;;;;;;3.33;2.50;;;3.40;99.90;;;;;;5014702;28;20625;-78
2022/02/14 06:31:29;;;;;;;3.17;2.30;;;3.40;99.90;;;;;;5002000;28;20203;-79
2022/02/14 06:33:55;;;;;;;4.43;2.57;;;3.40;99.90;;;;;;4998828;28;20195;-77
2022/02/14 06:36:23;;;;;;;4.47;2.40;;;3.30;99.90;;;;;;5003390;28;20192;-80
2022/02/14 06:38:49;;;;;;;2.73;2.13;;;3.40;99.90;;;;;;5002405;28;20262;-77
2022/02/14 06:41:16;;;;;;;4.47;2.13;;;3.50;99.90;;;;;;5003075;28;20176;-79
2022/02/14 06:43:41;;;;;;;6.80;2.83;;;3.60;99.90;;;;;;5015569;28;20188;-79
2022/02/14 06:46:07;;;;;;;2.70;1.80;;;3.60;99.90;;;;;;5000750;28;20263;-79
2022/02/14 06:48:33;;;;;;;4.90;1.70;;;3.60;99.90;;;;;;4994784;28;20589;-79
2022/02/14 06:50:58;;;;;;;2.47;1.60;;;3.90;99.90;;;;;;5001461;28;20602;-79
2022/02/14 06:53:26;;;;;;;3.00;1.77;;;4.00;99.90;;;;;;5001904;28;20196;-77
2022/02/14 06:55:52;;;;;;;3.00;1.97;;;4.20;99.90;;;;;;5001226;28;20234;-78
2022/02/14 06:58:18;;;;;;;2.30;1.63;;;4.50;99.90;;;;;;5002854;28;20282;-77
2022/02/14 07:00:44;;;;;;;2.00;1.20;;;4.70;99.90;;;;;;5001147;28;20347;-77
2022/02/14 07:03:10;;;;;;;2.77;1.70;;;4.80;99.90;;;;;;5000131;28;20291;-79
2022/02/14 07:05:36;;;;;;;2.23;1.60;;;5.00;99.90;;;;;;5001410;28;20176;-79
2022/02/14 07:08:03;;;;;;;2.90;1.97;;;5.00;99.90;;;;;;5018442;28;20210;-77
2022/02/14 07:10:30;;;;;;;3.03;2.00;;;5.00;99.90;;;;;;4994149;28;20291;-77
2022/02/14 07:12:56;;;;;;;3.27;1.93;;;5.00;99.90;;;;;;5000949;28;20184;-80
2022/02/14 07:15:22;;;;;;;2.30;1.60;;;4.90;99.90;;;;;;5000946;28;20186;-79
2022/02/14 07:17:51;;;;;;;4.90;2.20;;;4.90;99.90;;;;;;4998078;28;20177;-80
2022/02/14 07:20:18;;;;;;;4.13;2.03;;;5.10;99.90;;;;;;4997241;28;20270;-76
2022/02/14 07:22:44;;;;;;;1.83;1.40;;;5.30;99.90;;;;;;5002588;28;20175;-79
2022/02/14 07:25:10;;;;;;;2.27;1.30;;;5.50;99.90;;;;;;5000051;28;20171;-77
2022/02/14 07:27:37;;;;;;;3.77;1.67;;;5.70;99.90;;;;;;4999202;28;20207;-78
2022/02/14 07:30:08;;;;;;;3.47;1.67;;;5.80;99.90;;;;;;4999081;28;20271;-80
2022/02/14 07:32:35;;;;;;;3.53;1.27;;;5.90;99.90;;;;;;5000676;28;20255;-79
2022/02/14 07:35:02;;;;;;;1.77;1.40;;;6.20;99.90;;;;;;5015744;28;20287;-79
2022/02/14 07:37:27;;;;;;;2.20;1.50;;;6.50;99.90;;;;;;5000368;28;20187;-79
2022/02/14 07:39:53;;;;;;;3.50;1.43;;;6.60;99.90;;;;;;4999025;28;20836;-80
2022/02/14 07:42:19;;;;;;;2.87;1.50;;;6.70;99.90;;;;;;4996296;28;20185;-77
2022/02/14 07:44:44;;;;;;;2.57;1.67;;;6.80;99.90;;;;;;4999126;28;20635;-79
2022/02/14 07:47:10;;;;;;;3.63;1.80;;;6.90;99.90;;;;;;4996822;28;20309;-79
2022/02/14 07:49:36;;;;;;;1.73;1.20;;;7.20;99.90;;;;;;4995149;28;20199;-79
2022/02/14 07:52:02;;;;;;;2.67;1.40;;;7.30;99.90;;;;;;4991949;28;20198;-78
2022/02/14 07:54:28;;;;;;;2.33;1.40;;;7.40;99.90;;;;;;4988640;28;20280;-77
2022/02/14 07:56:53;;;;;;;2.93;1.57;;;7.70;99.90;;;;;;5002230;28;20311;-78
2022/02/14 07:59:19;;;;;;;4.17;1.73;;;7.80;99.90;;;;;;5009681;28;20226;-76
2022/02/14 08:01:45;;;;;;;5.00;4.43;;;7.90;99.90;;;;;;4996453;28;20245;-82
2022/02/14 08:04:10;;;;;;;5.53;1.93;;;8.10;99.90;;;;;;5001046;28;20184;-81
2022/02/14 08:06:37;;;;;;;2.40;1.60;;;8.20;99.90;;;;;;5015528;28;20179;-79
2022/02/14 08:09:07;;;;;;;2.63;1.53;;;8.30;99.90;;;;;;4999363;28;20204;-82
2022/02/14 08:11:33;;;;;;;2.23;1.73;;;8.40;99.90;;;;;;5000570;28;20179;-80
2022/02/14 08:13:59;;;;;;;3.17;1.53;;;8.60;99.90;;;;;;5014647;28;20275;-80
2022/02/14 08:16:26;;;;;;;3.07;1.80;;;8.80;99.90;;;;;;5006606;28;20223;-77
2022/02/14 08:18:52;;;;;;;4.70;1.80;;;8.80;99.90;;;;;;5004521;28;20219;-79
2022/02/14 08:21:18;;;;;;;2.50;1.43;;;8.80;99.90;;;;;;4997868;28;20213;-80
2022/02/14 08:23:44;;;;;;;2.87;1.40;;;8.90;99.90;;;;;;4995855;28;20251;-79
2022/02/14 08:26:10;;;;;;;2.97;1.40;;;8.80;99.90;;;;;;5017910;28;20184;-79
2022/02/14 08:28:38;;;;;;;3.37;1.57;;;8.90;99.90;;;;;;5011899;28;20211;-78
2022/02/14 08:31:04;;;;;;;1.80;1.30;;;9.00;99.90;;;;;;5012159;28;20267;-80
2022/02/14 08:33:30;;;;;;;1.40;1.30;;;9.10;99.90;;;;;;5018178;28;20761;-79
2022/02/14 08:35:56;;;;;;;2.80;1.40;;;9.30;99.90;;;;;;5003904;28;20187;-80
2022/02/14 08:38:22;;;;;;;3.40;1.63;;;9.40;99.90;;;;;;4996316;28;20592;-78
2022/02/14 08:40:47;;;;;;;3.63;1.50;;;9.50;99.90;;;;;;4999486;28;20223;-80
2022/02/14 08:43:13;;;;;;;2.50;1.77;;;9.50;99.90;;;;;;4994358;28;20195;-77
2022/02/14 08:45:39;;;;;;;3.23;1.53;;;9.70;99.90;;;;;;4991018;28;20191;-77
2022/02/14 08:48:04;;;;;;;4.57;1.87;;;9.60;99.90;;;;;;4991108;28;20906;-78
2022/02/14 08:50:31;;;;;;;3.70;1.60;;;9.80;99.90;;;;;;4986951;28;20206;-81
2022/02/14 08:53:00;;;;;;;2.63;1.50;;;9.80;99.90;;;;;;5002803;28;20580;-79
2022/02/14 08:55:26;;;;;;;4.37;1.43;;;9.80;99.90;;;;;;4992861;28;20218;-78
2022/02/14 08:57:52;;;;;;;2.80;1.50;;;10.00;99.90;;;;;;4990571;28;20289;-77
2022/02/14 09:00:18;;;;;;;4.30;1.30;;;10.10;99.90;;;;;;4990417;28;20212;-80
2022/02/14 09:02:44;;;;;;;2.60;2.27;;;10.30;99.90;;;;;;4988061;28;20208;-77
2022/02/14 09:05:09;;;;;;;3.73;1.57;;;10.30;99.90;;;;;;4987992;28;20239;-79
2022/02/14 09:07:35;;;;;;;2.57;1.90;;;10.40;99.90;;;;;;5006962;28;20180;-79
2022/02/14 09:10:01;;;;;;;3.27;2.00;;;10.50;99.90;;;;;;4989629;28;20232;-78
2022/02/14 09:12:26;;;;;;;1.63;1.50;;;10.40;99.90;;;;;;5008736;28;20196;-75
2022/02/14 09:14:52;;;;;;;1.90;1.60;;;10.50;99.90;;;;;;4990825;28;20226;-79
2022/02/14 09:17:18;;;;;;;2.73;1.53;;;10.70;99.90;;;;;;4990763;28;20647;-79
2022/02/14 09:19:45;;;;;;;2.30;1.80;;;10.70;99.90;;;;;;4987764;28;20258;-79
2022/02/14 09:22:10;;;;;;;3.80;2.00;;;10.70;99.90;;;;;;4994099;28;20212;-79
2022/02/14 09:24:36;;;;;;;4.23;1.90;;;10.90;99.90;;;;;;4992466;28;20618;-79
2022/02/14 09:27:03;;;;;;;3.55;1.48;;;11.00;99.90;;;;;;4990087;28;20196;-80
2022/02/14 09:29:30;;;;;;;2.67;1.60;;;10.90;99.90;;;;;;4993150;28;20215;-79
2022/02/14 09:31:56;;;;;;;2.90;1.50;;;10.80;99.90;;;;;;5000667;28;20279;-80
2022/02/14 09:34:22;;;;;;;2.43;2.00;;;10.70;99.90;;;;;;4988631;28;20190;-79
2022/02/14 09:36:48;;;;;;;3.60;1.70;;;10.50;99.90;;;;;;4984141;28;20252;-79
2022/02/14 09:39:13;;;;;;;2.80;1.70;;;10.50;99.90;;;;;;4991690;28;20239;-78
2022/02/14 09:41:39;;;;;;;3.73;2.00;;;10.70;99.90;;;;;;4987719;28;20663;-79
2022/02/14 09:44:06;;;;;;;3.53;2.80;;;10.80;99.90;;;;;;4984900;28;20290;-80
2022/02/14 09:46:35;;;;;;;1.93;1.43;;;11.00;99.90;;;;;;4992355;28;20188;-79
2022/02/14 09:49:02;;;;;;;3.42;1.65;;;11.00;99.90;;;;;;5013651;28;20203;-79
2022/02/14 09:51:29;;;;;;;3.00;1.57;;;11.00;99.90;;;;;;4995785;28;20269;-79
2022/02/14 09:53:55;;;;;;;2.70;1.50;;;11.00;99.90;;;;;;4992533;28;20675;-79
2022/02/14 09:56:22;;;;;;;3.97;1.90;;;11.10;99.90;;;;;;5004700;28;20223;-79
2022/02/14 09:58:48;;;;;;;3.07;1.80;;;11.10;99.90;;;;;;4993867;28;20208;-78
2022/02/14 10:01:14;;;;;;;4.43;2.50;;;11.10;99.90;;;;;;4993391;28;20180;-79
2022/02/14 10:03:53;;;;;;;1.45;1.20;;;11.20;99.90;;;;;;4992443;28;20206;-80
2022/02/14 10:06:31;;;;;;;2.20;1.50;;;11.10;99.90;;;;;;4995070;28;20183;-78
2022/02/14 10:09:24;;;;;;;3.55;1.25;;;11.10;99.90;;;;;;5009572;28;20203;-78
2022/02/14 10:12:11;;;;;;;3.03;1.70;;;11.00;99.90;;;;;;4991609;28;20183;-79
2022/02/14 10:14:38;;;;;;;2.67;1.63;;;11.00;99.90;;;;;;5013624;28;20186;-78
2022/02/14 10:17:09;;;;;;;3.67;1.73;;;11.00;99.90;;;;;;5008592;28;20551;-79
2022/02/14 10:19:39;;;;;;;3.20;1.60;;;10.90;99.90;;;;;;4991139;28;20243;-78
2022/02/14 10:22:09;;;;;;;1.53;1.30;;;11.00;99.90;;;;;;5007516;28;20184;-80
2022/02/14 10:24:39;;;;;;;4.22;1.35;;;10.90;99.90;;;;;;4993034;28;20744;-77
2022/02/14 10:27:07;;;;;;;1.50;1.30;;;10.80;99.90;;;;;;4998435;28;20203;-77
2022/02/14 10:29:33;;;;;;;3.40;1.30;;;10.70;99.90;;;;;;4994392;28;20247;-79
2022/02/14 10:32:20;;;;;;;2.30;1.50;;;10.60;99.90;;;;;;4994199;28;20191;-79
2022/02/14 10:34:53;;;;;;;3.77;1.70;;;10.50;99.90;;;;;;4987654;28;20192;-79
2022/02/14 10:37:19;;;;;;;2.37;1.50;;;10.30;99.90;;;;;;4986192;28;20195;-80
2022/02/14 10:39:46;;;;;;;2.80;1.60;;;10.30;99.90;;;;;;4985181;28;20212;-79
2022/02/14 10:42:15;;;;;;;1.63;1.03;;;10.30;99.90;;;;;;4987928;28;20184;-80
2022/02/14 10:47:33;;;;;;;2.33;1.50;;;10.70;99.90;;;;;;4998941;28;20191;-79
2022/02/14 10:50:17;;;;;;;2.43;1.40;;;10.90;99.90;;;;;;4988547;28;20207;-79
2022/02/14 10:52:57;;;;;;;3.30;2.30;;;11.20;99.90;;;;;;4998526;28;20207;-79
2022/02/14 10:55:33;;;;;;;5.57;3.10;;;11.40;99.90;;;;;;4999188;28;21167;-79
2022/02/14 10:58:00;;;;;;;2.37;1.60;;;11.50;99.90;;;;;;4996065;28;20199;-79
2022/02/14 11:00:34;;;;;;;2.93;1.50;;;11.50;99.90;;;;;;4997444;28;20273;-80
2022/02/14 11:03:06;;;;;;;5.90;1.67;;;11.60;99.90;;;;;;4996342;28;20306;-79
2022/02/14 11:05:33;;;;;;;1.80;1.50;;;11.60;99.90;;;;;;5014111;28;20704;-79
2022/02/14 11:08:00;;;;;;;2.53;1.80;;;11.70;99.90;;;;;;4995246;28;20207;-79
2022/02/14 11:10:26;;;;;;;2.28;1.27;;;11.80;99.90;;;;;;4999181;28;20540;-78
2022/02/14 11:12:54;;;;;;;2.55;1.17;;;11.80;99.90;;;;;;5013170;28;20184;-80
2022/02/14 11:15:24;;;;;;;2.70;1.70;;;11.90;99.90;;;;;;4995396;28;20702;-79
2022/02/14 11:18:01;;;;;;;1.50;1.40;;;12.00;99.90;;;;;;5003955;28;20247;-79
2022/02/14 11:20:27;;;;;;;3.70;1.70;;;12.10;99.90;;;;;;4997103;28;20203;-78
2022/02/14 11:22:55;;;;;;;2.60;1.40;;;12.10;99.90;;;;;;5013550;28;20187;-79
2022/02/14 11:25:32;;;;;;;2.03;1.20;;;12.10;99.90;;;;;;4998124;28;20187;-79
2022/02/14 11:28:19;;;;;;;1.27;1.08;;;12.20;99.90;;;;;;4992900;28;20187;-80
2022/02/14 11:30:50;;;;;;;1.77;1.17;;;12.30;99.90;;;;;;4996066;28;20184;-80
2022/02/14 11:33:22;;;;;;;2.35;1.00;;;12.20;99.90;;;;;;4996725;28;20726;-79
2022/02/14 11:35:58;;;;;;;3.22;1.67;;;12.20;99.90;;;;;;5012136;28;20245;-79
2022/02/14 11:38:47;;;;;;;3.55;1.38;;;12.30;99.90;;;;;;5013732;28;20231;-80
2022/02/14 11:41:33;;;;;;;1.27;1.00;;;12.40;99.90;;;;;;5013226;28;20676;-80
2022/02/14 11:44:20;;;;;;;2.55;1.05;;;12.40;99.90;;;;;;5014718;28;20204;-81
2022/02/14 11:46:55;;;;;;;1.27;0.98;;;12.50;99.90;;;;;;5005050;28;20179;-79
2022/02/14 11:49:47;;;;;;;3.03;1.13;;;12.60;99.90;;;;;;4998219;28;20337;-81
2022/02/14 11:52:25;;;;;;;4.03;1.77;;;12.70;99.90;;;;;;5004282;28;20188;-79
2022/02/14 11:54:51;;;;;;;1.73;1.40;;;12.80;99.90;;;;;;4995581;28;20318;-78
2022/02/14 11:57:28;;;;;;;2.78;1.70;;;12.70;99.90;;;;;;4997180;28;20271;-79
2022/02/14 12:00:14;;;;;;;5.03;2.10;;;12.60;99.90;;;;;;5013152;28;20685;-79
2022/02/14 12:02:42;;;;;;;1.83;1.17;;;12.60;99.90;;;;;;4998998;28;20200;-79
2022/02/14 12:05:08;;;;;;;2.80;0.93;;;12.70;99.90;;;;;;5013222;28;20246;-80
2022/02/14 12:07:36;;;;;;;2.17;1.27;;;12.70;99.90;;;;;;4997204;28;20183;-81
2022/02/14 12:10:56;;;;;;;3.05;0.95;;;12.90;99.90;;;;;;4995014;28;20180;-80
2022/02/14 12:13:27;;;;;;;1.60;1.17;;;12.70;99.90;;;;;;4936812;28;20197;-80
2022/02/14 12:21:29;;;;;;;3.92;1.10;;;12.80;99.90;;;;;;4998688;28;20194;-79
2022/02/14 12:24:13;;;;;;;2.53;1.45;;;12.70;99.90;;;;;;4995421;28;20311;-81
2022/02/14 12:26:39;;;;;;;3.78;1.35;;;12.80;99.90;;;;;;5002803;28;20179;-81
2022/02/14 12:31:53;;;;;;;2.70;1.00;;;12.80;99.90;;;;;;4995463;28;20191;-80
2022/02/14 12:34:29;;;;;;;4.55;1.15;;;12.80;99.90;;;;;;4995777;28;20258;-83
2022/02/14 12:37:03;;;;;;;2.47;1.45;;;12.80;99.90;;;;;;5002500;28;20200;-79
2022/02/14 12:39:28;;;;;;;1.60;0.90;;;12.90;99.90;;;;;;4996132;28;20207;-79
2022/02/14 12:41:54;;;;;;;2.65;1.05;;;12.90;99.90;;;;;;4993605;28;20287;-80
2022/02/14 12:44:20;;;;;;;1.98;1.00;;;12.80;99.90;;;;;;5010591;28;20211;-83
2022/02/14 12:46:46;;;;;;;1.00;0.77;;;12.80;99.90;;;;;;4997423;28;20193;-80
2022/02/14 12:49:12;;;;;;;2.17;0.90;;;12.70;99.90;;;;;;4996476;28;20199;-80
2022/02/14 12:51:37;;;;;;;1.30;1.00;;;12.80;99.90;;;;;;5010467;28;20183;-80
2022/02/14 12:54:07;;;;;;;2.72;0.93;;;12.80;99.90;;;;;;5008891;28;20262;-79
2022/02/14 12:56:35;;;;;;;1.27;0.80;;;12.80;99.90;;;;;;4995272;28;20180;-80
2022/02/14 12:59:08;;;;;;;2.13;1.00;;;12.70;99.90;;;;;;4994684;28;20243;-80
2022/02/14 13:01:42;;;;;;;1.58;0.93;;;12.70;99.90;;;;;;4991789;28;20171;-79
2022/02/14 13:04:11;;;;;;;2.17;1.10;;;12.70;99.90;;;;;;5009961;28;20174;-80
2022/02/14 13:06:51;;;;;;;2.40;1.00;;;12.70;99.90;;;;;;4995673;28;20195;-80